Time;durP1;ratioP1;P1;durP2;ratioP2;P2;SDS_P1;SDS_P2;PMS_P1;PMS_P2;Temp;Humidity;BMP_temperature;BMP_pressure;BME280_temperature;BME280_humidity;BME280_pressure;Samples;Min_cycle;Max_cycle;Signal;HPM_P1;HPM_P2
2023/04/07 00:02:16;;;;;;;5.77;4.53;;;4.60;99.90;;;;;;5051133;28;20440;-47
2023/04/07 00:04:43;;;;;;;7.03;5.00;;;4.30;99.90;;;;;;5051682;28;20536;-49
2023/04/07 00:07:10;;;;;;;7.27;5.37;;;4.00;99.90;;;;;;5051653;28;20477;-48
2023/04/07 00:09:38;;;;;;;8.50;5.83;;;3.80;99.90;;;;;;5051193;28;20485;-43
2023/04/07 00:12:05;;;;;;;9.13;6.60;;;3.90;99.90;;;;;;5051167;28;20564;-49
2023/04/07 00:14:32;;;;;;;8.63;6.30;;;3.90;99.90;;;;;;5050832;28;20960;-47
2023/04/07 00:16:59;;;;;;;12.73;8.10;;;4.10;99.90;;;;;;5050918;28;20477;-49
2023/04/07 00:19:26;;;;;;;19.67;10.70;;;4.20;99.90;;;;;;5072968;23;20514;-82
2023/04/07 00:21:53;;;;;;;15.00;8.77;;;4.30;99.90;;;;;;4993342;28;20544;-82
2023/04/07 00:24:20;;;;;;;9.40;6.17;;;4.50;99.90;;;;;;4992631;28;20452;-81
2023/04/07 00:26:49;;;;;;;6.50;4.53;;;4.50;99.90;;;;;;4992711;28;20446;-82
2023/04/07 00:29:15;;;;;;;13.60;7.33;;;4.50;99.90;;;;;;4992698;28;20541;-82
2023/04/07 00:31:42;;;;;;;18.57;12.83;;;4.30;99.90;;;;;;4992374;28;20578;-82
2023/04/07 00:34:09;;;;;;;20.73;10.20;;;4.20;99.90;;;;;;5020489;23;21068;-50
2023/04/07 00:36:36;;;;;;;10.20;6.90;;;4.30;99.90;;;;;;5013789;28;20481;-52
2023/04/07 00:39:03;;;;;;;7.07;5.83;;;4.50;99.90;;;;;;5014527;28;20814;-50
2023/04/07 00:41:30;;;;;;;7.83;5.70;;;4.40;99.90;;;;;;5015072;28;20487;-51
2023/04/07 00:43:58;;;;;;;6.20;5.20;;;4.30;99.90;;;;;;5015177;28;20446;-51
2023/04/07 00:46:25;;;;;;;8.97;6.00;;;4.10;99.90;;;;;;5015897;28;20522;-51
2023/04/07 00:48:52;;;;;;;6.10;4.00;;;4.30;99.90;;;;;;5015755;28;20930;-51
2023/04/07 00:51:21;;;;;;;4.23;3.83;;;4.20;99.90;;;;;;5014948;28;20514;-52
2023/04/07 00:53:49;;;;;;;5.40;4.10;;;4.30;99.90;;;;;;5015415;28;20457;-51
2023/04/07 00:56:16;;;;;;;5.63;3.87;;;4.10;99.90;;;;;;5014936;28;20912;-51
2023/04/07 00:58:43;;;;;;;5.10;3.57;;;4.10;99.90;;;;;;5015325;28;20452;-54
2023/04/07 01:01:18;;;;;;;4.90;3.80;;;4.40;99.90;;;;;;5015111;28;20530;-51
2023/04/07 01:03:58;;;;;;;3.47;3.17;;;4.50;99.90;;;;;;5015264;28;20454;-50
2023/04/07 01:06:29;;;;;;;3.53;3.20;;;4.40;99.90;;;;;;5015159;28;21018;-51
2023/04/07 01:09:02;;;;;;;3.53;3.20;;;4.40;99.90;;;;;;5015821;28;20455;-52
2023/04/07 01:11:37;;;;;;;3.60;3.30;;;4.60;99.90;;;;;;5015314;28;20510;-51
2023/04/07 01:14:06;;;;;;;5.17;3.40;;;4.60;99.90;;;;;;5015647;28;20471;-51
2023/04/07 01:16:47;;;;;;;3.47;3.00;;;4.40;99.90;;;;;;5013175;28;20482;-51
2023/04/07 01:19:17;;;;;;;3.20;2.83;;;4.40;99.90;;;;;;4996077;28;20462;-52
2023/04/07 01:21:46;;;;;;;3.57;3.27;;;4.20;99.90;;;;;;4995554;28;20451;-50
2023/04/07 01:24:45;;;;;;;3.20;2.90;;;4.30;99.90;;;;;;4995546;28;20802;-51
2023/04/07 01:27:21;;;;;;;4.13;3.40;;;4.50;99.90;;;;;;4996073;28;20476;-53
2023/04/07 01:29:52;;;;;;;3.43;3.13;;;4.50;99.90;;;;;;4996358;28;20467;-51
2023/04/07 01:32:20;;;;;;;8.13;4.20;;;4.30;99.90;;;;;;4995358;28;20574;-53
2023/04/07 01:34:49;;;;;;;3.87;3.47;;;4.10;99.90;;;;;;4995649;28;20458;-52
2023/04/07 01:37:17;;;;;;;3.97;3.57;;;4.10;99.90;;;;;;4995661;28;20882;-52
2023/04/07 01:39:44;;;;;;;3.77;3.23;;;3.60;99.90;;;;;;4996093;28;20553;-50
2023/04/07 01:42:12;;;;;;;3.77;3.47;;;3.50;99.90;;;;;;4995767;28;20539;-53
2023/04/07 01:44:40;;;;;;;4.40;3.77;;;3.50;99.90;;;;;;4996341;28;20446;-53
2023/04/07 01:47:09;;;;;;;4.10;3.70;;;3.60;99.90;;;;;;4996744;28;20548;-54
2023/04/07 01:49:37;;;;;;;3.97;3.20;;;3.70;99.90;;;;;;4995910;28;20521;-51
2023/04/07 01:52:06;;;;;;;4.33;3.43;;;3.80;99.90;;;;;;4994667;28;20476;-50
2023/04/07 01:54:33;;;;;;;3.77;3.30;;;3.90;99.90;;;;;;5010975;28;20480;-51
2023/04/07 01:57:01;;;;;;;3.37;3.07;;;4.10;99.90;;;;;;5014480;28;20496;-52
2023/04/07 01:59:28;;;;;;;3.97;3.57;;;3.90;99.90;;;;;;5013972;28;20442;-56
2023/04/07 02:01:55;;;;;;;5.67;3.93;;;4.00;99.90;;;;;;5014660;28;20447;-50
2023/04/07 02:04:29;;;;;;;4.83;3.90;;;3.70;99.90;;;;;;5015018;28;20457;-57
2023/04/07 02:07:09;;;;;;;4.37;3.97;;;3.90;99.90;;;;;;5015073;28;20535;-54
2023/04/07 02:09:39;;;;;;;3.70;3.33;;;3.90;99.90;;;;;;5014839;28;20528;-51
2023/04/07 02:12:09;;;;;;;5.63;3.20;;;4.00;99.90;;;;;;5014470;28;20479;-51
2023/04/07 02:14:37;;;;;;;4.10;3.80;;;3.80;99.90;;;;;;5014276;28;20534;-52
2023/04/07 02:17:05;;;;;;;4.10;3.20;;;3.70;99.90;;;;;;5013414;28;20478;-51
2023/04/07 02:19:34;;;;;;;3.67;3.37;;;4.00;99.90;;;;;;5018208;28;20447;-51
2023/04/07 02:22:03;;;;;;;3.70;3.23;;;4.20;99.90;;;;;;5017409;28;20445;-53
2023/04/07 02:24:30;;;;;;;5.43;3.80;;;4.00;99.90;;;;;;5005708;28;20524;-51
2023/04/07 02:26:59;;;;;;;6.60;4.00;;;4.00;99.90;;;;;;5001635;28;20442;-55
2023/04/07 02:29:27;;;;;;;4.10;3.40;;;3.80;99.90;;;;;;5001000;28;20457;-52
2023/04/07 02:31:53;;;;;;;3.90;3.60;;;3.80;99.90;;;;;;4997869;28;20479;-53
2023/04/07 02:34:20;;;;;;;3.80;3.50;;;3.30;99.90;;;;;;5008946;28;20900;-51
2023/04/07 02:36:48;;;;;;;5.43;3.30;;;3.20;99.90;;;;;;5017169;28;20836;-50
2023/04/07 02:39:15;;;;;;;3.90;3.50;;;3.20;99.90;;;;;;5018044;28;20531;-52
2023/04/07 02:41:42;;;;;;;6.93;5.20;;;3.20;99.90;;;;;;5017431;28;20535;-50
2023/04/07 02:44:09;;;;;;;5.90;4.60;;;3.30;99.90;;;;;;5017030;28;20537;-50
2023/04/07 02:46:36;;;;;;;5.97;5.40;;;3.30;99.90;;;;;;5014514;28;20453;-53
2023/04/07 02:49:03;;;;;;;5.13;4.63;;;3.30;99.90;;;;;;5016740;28;20452;-50
2023/04/07 02:51:30;;;;;;;9.00;5.20;;;3.40;99.90;;;;;;5016955;28;20763;-51
2023/04/07 02:53:58;;;;;;;6.20;4.77;;;3.40;99.90;;;;;;5018139;28;20580;-50
2023/04/07 02:56:25;;;;;;;7.73;5.80;;;3.30;99.90;;;;;;5017050;28;20524;-51
2023/04/07 02:58:52;;;;;;;5.53;4.73;;;3.30;99.90;;;;;;5017694;28;20491;-52
2023/04/07 03:01:19;;;;;;;6.30;5.53;;;3.20;99.90;;;;;;5004482;28;20552;-50
2023/04/07 03:03:46;;;;;;;5.13;4.63;;;3.00;99.90;;;;;;4996732;28;20493;-50
2023/04/07 03:06:13;;;;;;;6.33;5.33;;;3.00;99.90;;;;;;4997125;28;20452;-53
2023/04/07 03:08:41;;;;;;;6.70;6.10;;;3.00;99.90;;;;;;4997352;28;20690;-50
2023/04/07 03:11:09;;;;;;;6.90;6.33;;;2.90;99.90;;;;;;4996726;28;20474;-50
2023/04/07 03:13:36;;;;;;;7.00;5.07;;;2.80;99.90;;;;;;4996689;28;20566;-51
2023/04/07 03:16:03;;;;;;;7.03;6.33;;;2.80;99.90;;;;;;4996636;28;20479;-50
2023/04/07 03:18:30;;;;;;;7.40;5.73;;;2.90;99.90;;;;;;4997145;28;20894;-51
2023/04/07 03:20:57;;;;;;;7.57;5.10;;;3.00;99.90;;;;;;4999353;28;20500;-51
2023/04/07 03:23:24;;;;;;;6.03;5.43;;;3.10;99.90;;;;;;5012313;28;21105;-51
2023/04/07 03:25:51;;;;;;;7.63;6.27;;;3.00;99.90;;;;;;5012893;28;20465;-50
2023/04/07 03:28:20;;;;;;;6.37;5.63;;;3.10;99.90;;;;;;5014376;28;20927;-49
2023/04/07 03:30:46;;;;;;;5.93;5.33;;;2.90;99.90;;;;;;5015471;28;20497;-50
2023/04/07 03:33:14;;;;;;;6.53;5.60;;;2.60;99.90;;;;;;5014282;28;20890;-51
2023/04/07 03:35:42;;;;;;;8.33;6.70;;;2.60;99.90;;;;;;4998576;28;20479;-51
2023/04/07 03:38:09;;;;;;;6.00;5.50;;;2.60;99.90;;;;;;4995760;28;20475;-50
2023/04/07 03:40:36;;;;;;;8.57;6.83;;;2.60;99.90;;;;;;5010848;28;20499;-50
2023/04/07 03:43:03;;;;;;;10.77;6.30;;;2.70;99.90;;;;;;5014735;28;20502;-56
2023/04/07 03:45:33;;;;;;;7.87;7.17;;;2.60;99.90;;;;;;5015766;28;20860;-50
2023/04/07 03:48:01;;;;;;;10.13;8.77;;;2.50;99.90;;;;;;5015549;28;20452;-51
2023/04/07 03:50:28;;;;;;;10.90;8.20;;;2.70;99.90;;;;;;5015775;28;20544;-51
2023/04/07 03:52:54;;;;;;;10.20;8.60;;;2.70;99.90;;;;;;5000932;28;20533;-50
2023/04/07 03:55:22;;;;;;;15.57;9.10;;;2.60;99.90;;;;;;4996958;28;20539;-50
2023/04/07 03:57:49;;;;;;;9.47;8.17;;;2.70;99.90;;;;;;4996946;28;20449;-51
2023/04/07 04:00:16;;;;;;;10.07;7.90;;;2.80;99.90;;;;;;4996990;28;20508;-54
2023/04/07 04:02:44;;;;;;;12.53;9.23;;;2.90;99.90;;;;;;5003208;28;20532;-50
2023/04/07 04:05:11;;;;;;;10.17;8.60;;;2.90;99.90;;;;;;4995610;28;20450;-50
2023/04/07 04:07:38;;;;;;;10.37;9.27;;;2.80;99.90;;;;;;4997281;28;20454;-51
2023/04/07 04:10:06;;;;;;;13.97;8.90;;;2.90;99.90;;;;;;5005325;28;20501;-50
2023/04/07 04:12:33;;;;;;;10.17;8.87;;;2.80;99.90;;;;;;5011153;28;20475;-51
2023/04/07 04:15:00;;;;;;;9.63;8.63;;;2.80;99.90;;;;;;5014619;28;20993;-55
2023/04/07 04:17:27;;;;;;;9.47;8.53;;;2.90;99.90;;;;;;5015119;28;21000;-51
2023/04/07 04:19:55;;;;;;;14.00;8.27;;;3.10;99.90;;;;;;5015172;28;20552;-50
2023/04/07 04:22:22;;;;;;;11.10;8.47;;;3.20;99.90;;;;;;5014495;28;20506;-50
2023/04/07 04:24:49;;;;;;;8.80;7.67;;;3.00;99.90;;;;;;5014614;28;20529;-50
2023/04/07 04:27:16;;;;;;;14.10;9.30;;;2.90;99.90;;;;;;5011114;28;20448;-50
2023/04/07 04:29:43;;;;;;;9.70;7.77;;;3.10;99.90;;;;;;5014866;28;20548;-53
2023/04/07 04:32:10;;;;;;;9.30;8.30;;;3.20;99.90;;;;;;5001542;28;20530;-49
2023/04/07 04:34:37;;;;;;;10.00;9.00;;;3.20;99.90;;;;;;5011540;28;20959;-50
2023/04/07 04:37:05;;;;;;;9.30;8.23;;;3.20;99.90;;;;;;4999599;28;20505;-50
2023/04/07 04:39:32;;;;;;;12.10;8.73;;;3.20;99.90;;;;;;4998086;28;20539;-50
2023/04/07 04:42:00;;;;;;;9.70;8.20;;;3.20;99.90;;;;;;5014230;28;20536;-52
2023/04/07 04:44:28;;;;;;;8.93;8.03;;;3.00;99.90;;;;;;5001055;28;20441;-52
2023/04/07 04:46:55;;;;;;;11.73;8.73;;;3.00;99.90;;;;;;4999953;28;20451;-50
2023/04/07 04:49:21;;;;;;;10.43;8.13;;;3.20;99.90;;;;;;5000905;28;20451;-52
2023/04/07 04:51:48;;;;;;;10.03;8.50;;;3.10;99.90;;;;;;5012345;28;20443;-50
2023/04/07 04:54:18;;;;;;;9.37;8.07;;;2.90;99.90;;;;;;5002816;28;20503;-50
2023/04/07 04:56:45;;;;;;;10.20;8.40;;;2.90;99.90;;;;;;5004187;28;20528;-51
2023/04/07 04:59:12;;;;;;;14.53;9.60;;;2.90;99.90;;;;;;5003848;28;20515;-53
2023/04/07 05:01:39;;;;;;;13.37;10.00;;;3.00;99.90;;;;;;5004116;28;20541;-50
2023/04/07 05:04:07;;;;;;;13.90;9.00;;;3.30;99.90;;;;;;5003676;28;20438;-50
2023/04/07 05:06:34;;;;;;;10.63;9.63;;;3.50;99.90;;;;;;4996984;28;20457;-52
2023/04/07 05:09:01;;;;;;;11.20;8.60;;;3.40;99.90;;;;;;5000955;28;20474;-50
2023/04/07 05:11:30;;;;;;;17.60;10.90;;;3.40;99.90;;;;;;5010596;28;20755;-50
2023/04/07 05:13:57;;;;;;;18.37;13.50;;;3.50;99.90;;;;;;5004088;28;20513;-50
2023/04/07 05:16:23;;;;;;;15.10;12.67;;;3.30;99.90;;;;;;5004981;28;20472;-50
2023/04/07 05:18:50;;;;;;;15.50;11.90;;;3.40;99.90;;;;;;5014490;28;20470;-51
2023/04/07 05:21:19;;;;;;;12.10;9.97;;;3.60;99.90;;;;;;5009324;28;20507;-52
2023/04/07 05:23:45;;;;;;;10.10;8.43;;;3.50;99.90;;;;;;5003488;28;20500;-51
2023/04/07 05:26:12;;;;;;;9.57;8.00;;;3.50;99.90;;;;;;5005658;28;20434;-52
2023/04/07 05:28:41;;;;;;;10.83;9.73;;;3.50;99.90;;;;;;5000421;28;20538;-51
2023/04/07 05:31:08;;;;;;;10.47;8.20;;;3.60;99.90;;;;;;5002505;28;20503;-53
2023/04/07 05:33:35;;;;;;;9.00;7.73;;;3.20;99.90;;;;;;5011798;28;20484;-51
2023/04/07 05:36:02;;;;;;;9.63;8.70;;;3.10;99.90;;;;;;5014766;28;20453;-52
2023/04/07 05:38:29;;;;;;;11.80;8.60;;;3.20;99.90;;;;;;5012753;28;20476;-52
2023/04/07 05:40:56;;;;;;;12.03;9.90;;;3.50;99.90;;;;;;5014296;28;20521;-49
2023/04/07 05:43:23;;;;;;;9.90;8.73;;;3.40;99.90;;;;;;5014269;28;20439;-50
2023/04/07 05:45:51;;;;;;;10.50;8.13;;;3.20;99.90;;;;;;5014600;28;20523;-49
2023/04/07 05:48:18;;;;;;;10.30;8.47;;;3.10;99.90;;;;;;5003183;28;20477;-51
2023/04/07 05:50:45;;;;;;;11.33;10.17;;;3.40;99.90;;;;;;5009041;28;20972;-51
2023/04/07 05:53:12;;;;;;;12.13;9.73;;;3.60;99.90;;;;;;5011970;28;21015;-50
2023/04/07 05:55:38;;;;;;;12.27;9.30;;;3.60;99.90;;;;;;4998798;28;20446;-50
2023/04/07 05:58:05;;;;;;;14.60;10.07;;;3.40;99.90;;;;;;4998163;28;20514;-51
2023/04/07 06:00:32;;;;;;;12.53;9.63;;;3.20;99.90;;;;;;4997730;28;20462;-52
2023/04/07 06:03:02;;;;;;;13.40;9.50;;;3.10;99.90;;;;;;4998564;28;20529;-52
2023/04/07 06:05:29;;;;;;;12.97;10.53;;;3.10;99.90;;;;;;4998739;28;20790;-51
2023/04/07 06:07:56;;;;;;;14.20;9.60;;;3.10;99.90;;;;;;4999227;28;20509;-50
2023/04/07 06:10:23;;;;;;;9.63;8.10;;;3.20;99.90;;;;;;4998868;28;20512;-51
2023/04/07 06:12:50;;;;;;;10.70;9.60;;;3.20;99.90;;;;;;4997525;28;20919;-52
2023/04/07 06:15:17;;;;;;;14.83;10.37;;;3.40;99.90;;;;;;4994838;28;20485;-50
2023/04/07 06:17:44;;;;;;;13.30;10.00;;;3.70;99.90;;;;;;4995133;28;20521;-49
2023/04/07 06:20:13;;;;;;;10.80;8.60;;;3.80;99.90;;;;;;4997013;28;20471;-49
2023/04/07 06:22:40;;;;;;;11.27;9.63;;;3.50;99.90;;;;;;4997911;28;20447;-49
2023/04/07 06:25:07;;;;;;;11.80;9.50;;;3.60;99.90;;;;;;4997647;28;20444;-51
2023/04/07 06:27:35;;;;;;;10.47;9.37;;;3.80;99.90;;;;;;4998835;28;20479;-51
2023/04/07 06:30:02;;;;;;;12.63;10.30;;;3.90;99.90;;;;;;4998568;28;20717;-50
2023/04/07 06:32:29;;;;;;;11.83;10.63;;;4.00;99.90;;;;;;4998470;28;20881;-50
2023/04/07 06:34:56;;;;;;;12.90;10.87;;;4.00;99.90;;;;;;4998846;28;20487;-50
2023/04/07 06:37:25;;;;;;;11.10;9.90;;;4.10;99.90;;;;;;4998002;28;20451;-51
2023/04/07 06:39:52;;;;;;;16.10;11.50;;;3.90;99.90;;;;;;4998227;28;20466;-50
2023/04/07 06:42:19;;;;;;;11.30;10.07;;;3.90;99.90;;;;;;4998402;28;20843;-51
2023/04/07 06:44:46;;;;;;;17.57;10.53;;;3.80;99.90;;;;;;4998049;28;20512;-49
2023/04/07 06:47:13;;;;;;;13.80;10.60;;;3.80;99.90;;;;;;5035537;23;21053;-53
2023/04/07 06:49:40;;;;;;;11.33;10.03;;;3.80;99.90;;;;;;5033598;28;20524;-55
2023/04/07 06:52:07;;;;;;;13.93;11.77;;;3.70;99.90;;;;;;5033495;28;20453;-55
2023/04/07 06:54:35;;;;;;;18.57;12.00;;;3.70;99.90;;;;;;5033264;28;20512;-55
2023/04/07 06:57:02;;;;;;;16.40;11.00;;;3.80;99.90;;;;;;5033519;28;20904;-55
2023/04/07 06:59:29;;;;;;;12.20;10.80;;;4.00;99.90;;;;;;5033660;28;20474;-54
2023/04/07 07:01:56;;;;;;;13.83;11.90;;;4.00;99.90;;;;;;5033364;28;20449;-55
2023/04/07 07:04:22;;;;;;;14.10;10.63;;;3.90;99.90;;;;;;5032325;28;20777;-55
2023/04/07 07:06:49;;;;;;;12.50;11.23;;;3.90;99.90;;;;;;5033115;28;20888;-55
2023/04/07 07:09:17;;;;;;;14.63;10.93;;;3.80;99.90;;;;;;5033441;28;20500;-55
2023/04/07 07:11:45;;;;;;;13.50;11.70;;;3.90;99.90;;;;;;5033251;28;20454;-55
2023/04/07 07:14:12;;;;;;;14.63;11.97;;;3.70;99.90;;;;;;5033114;28;21090;-54
2023/04/07 07:16:40;;;;;;;15.23;10.90;;;3.70;99.90;;;;;;5032725;28;20501;-55
2023/04/07 07:19:06;;;;;;;13.90;10.80;;;3.50;99.90;;;;;;5033479;28;20456;-55
2023/04/07 07:21:33;;;;;;;11.57;10.37;;;3.40;99.90;;;;;;5032996;28;20507;-55
2023/04/07 07:24:00;;;;;;;12.20;10.40;;;3.50;99.90;;;;;;5033226;28;20851;-54
2023/04/07 07:26:27;;;;;;;14.87;11.10;;;3.60;99.90;;;;;;5032852;28;20511;-55
2023/04/07 07:28:55;;;;;;;14.20;10.43;;;3.80;99.90;;;;;;5032938;28;20874;-55
2023/04/07 07:31:22;;;;;;;15.70;11.20;;;4.00;99.90;;;;;;5032983;28;20534;-55
2023/04/07 07:33:50;;;;;;;13.23;10.70;;;4.20;99.90;;;;;;5032929;28;20587;-55
2023/04/07 07:36:17;;;;;;;10.67;8.80;;;4.20;99.90;;;;;;5032611;28;20792;-54
2023/04/07 07:38:44;;;;;;;10.20;9.17;;;4.10;99.90;;;;;;5032260;28;20478;-54
2023/04/07 07:41:11;;;;;;;10.40;9.37;;;4.30;99.90;;;;;;5032761;28;20532;-54
2023/04/07 07:43:38;;;;;;;11.13;10.03;;;4.20;99.90;;;;;;5031964;28;20532;-55
2023/04/07 07:46:06;;;;;;;8.57;7.67;;;4.40;99.90;;;;;;5032185;28;20533;-55
2023/04/07 07:48:33;;;;;;;12.07;9.47;;;4.40;99.90;;;;;;5032359;28;20541;-55
2023/04/07 07:51:00;;;;;;;9.70;8.37;;;4.40;99.90;;;;;;5032392;28;21037;-54
2023/04/07 07:53:27;;;;;;;13.10;10.27;;;4.40;99.90;;;;;;5031694;28;20491;-55
2023/04/07 07:55:54;;;;;;;13.30;10.67;;;4.50;99.90;;;;;;5032511;28;20533;-55
2023/04/07 07:58:21;;;;;;;14.37;10.77;;;4.50;99.90;;;;;;5032291;28;20457;-55
2023/04/07 08:00:48;;;;;;;13.03;10.70;;;4.50;99.90;;;;;;5032319;28;20549;-54
2023/04/07 08:03:18;;;;;;;17.33;12.30;;;4.70;99.90;;;;;;5032165;28;20495;-55
2023/04/07 08:05:45;;;;;;;12.40;11.10;;;4.80;99.90;;;;;;5031895;28;20515;-55
2023/04/07 08:08:12;;;;;;;11.77;9.73;;;4.60;99.90;;;;;;5032020;28;20536;-55
2023/04/07 08:10:39;;;;;;;12.43;9.07;;;4.40;99.90;;;;;;5032088;28;20485;-55
2023/04/07 08:13:06;;;;;;;10.27;8.33;;;4.60;99.90;;;;;;5031821;28;20536;-54
2023/04/07 08:15:33;;;;;;;9.73;8.40;;;4.70;99.90;;;;;;5030761;28;20513;-56
2023/04/07 08:18:03;;;;;;;9.87;8.87;;;4.70;99.90;;;;;;5031704;28;21075;-55
2023/04/07 08:20:31;;;;;;;12.03;9.80;;;4.70;99.90;;;;;;5031820;28;20455;-55
2023/04/07 08:22:59;;;;;;;10.90;9.80;;;4.80;99.90;;;;;;5032233;28;20541;-55
2023/04/07 08:25:26;;;;;;;11.50;9.60;;;4.80;99.90;;;;;;5031569;28;20941;-55
2023/04/07 08:27:53;;;;;;;10.40;7.90;;;4.90;99.90;;;;;;5031784;28;20515;-54
2023/04/07 08:30:21;;;;;;;10.37;8.17;;;5.00;99.90;;;;;;5031898;28;20488;-55
2023/04/07 08:32:48;;;;;;;8.00;7.30;;;5.10;99.90;;;;;;5030859;28;20438;-52
2023/04/07 08:35:14;;;;;;;10.50;7.90;;;5.20;99.90;;;;;;5031373;28;20537;-56
2023/04/07 08:37:43;;;;;;;7.03;5.87;;;5.30;99.90;;;;;;5030823;28;20462;-53
2023/04/07 08:40:11;;;;;;;7.50;6.67;;;5.30;99.90;;;;;;5031222;28;20438;-55
2023/04/07 08:42:41;;;;;;;7.67;6.87;;;5.30;99.90;;;;;;5031016;28;20498;-53
2023/04/07 08:45:09;;;;;;;9.60;7.23;;;5.40;99.90;;;;;;5031003;28;20446;-56
2023/04/07 08:47:39;;;;;;;8.77;6.90;;;5.50;99.90;;;;;;5031048;28;21025;-53
2023/04/07 08:50:08;;;;;;;10.93;7.57;;;5.50;99.90;;;;;;5031474;28;20465;-53
2023/04/07 08:52:41;;;;;;;7.20;6.23;;;5.60;99.90;;;;;;5031339;28;20843;-54
2023/04/07 08:55:10;;;;;;;7.33;5.80;;;5.60;99.90;;;;;;5031135;28;20595;-53
2023/04/07 08:57:38;;;;;;;9.17;6.80;;;5.40;99.90;;;;;;5030994;28;20466;-54
2023/04/07 09:00:06;;;;;;;8.13;7.33;;;5.40;99.90;;;;;;5030607;28;20470;-54
2023/04/07 09:02:34;;;;;;;9.60;7.80;;;5.40;99.90;;;;;;5030097;28;20529;-53
2023/04/07 09:05:01;;;;;;;6.93;6.17;;;5.50;99.90;;;;;;5030665;28;20485;-53
2023/04/07 09:07:28;;;;;;;9.20;5.23;;;5.60;99.90;;;;;;5030861;28;20541;-54
2023/04/07 09:09:56;;;;;;;6.57;5.80;;;5.60;99.90;;;;;;5030659;28;20545;-53
2023/04/07 09:12:24;;;;;;;8.20;6.03;;;5.70;99.90;;;;;;5030438;28;20544;-54
2023/04/07 09:14:52;;;;;;;6.40;5.40;;;5.70;99.90;;;;;;5030541;28;21107;-53
2023/04/07 09:17:19;;;;;;;6.50;5.37;;;5.80;99.90;;;;;;5031218;28;20958;-53
2023/04/07 09:19:47;;;;;;;7.13;5.33;;;5.90;99.90;;;;;;5031157;28;20446;-55
2023/04/07 09:22:14;;;;;;;8.87;6.37;;;6.10;99.90;;;;;;5030991;28;20940;-53
2023/04/07 09:24:42;;;;;;;8.57;5.77;;;6.10;99.90;;;;;;5030660;28;20446;-54
2023/04/07 09:27:11;;;;;;;7.57;6.87;;;6.10;99.90;;;;;;5034898;28;20458;-54
2023/04/07 09:29:40;;;;;;;5.87;5.37;;;6.10;99.90;;;;;;5037472;28;20450;-54
2023/04/07 09:32:08;;;;;;;6.20;5.60;;;6.20;99.90;;;;;;5037532;28;20496;-53
2023/04/07 09:34:36;;;;;;;7.57;5.53;;;6.40;99.90;;;;;;5036375;28;20575;-54
2023/04/07 09:37:04;;;;;;;7.93;5.50;;;6.40;99.90;;;;;;5035859;28;20550;-54
2023/04/07 09:39:31;;;;;;;9.83;6.10;;;6.60;99.90;;;;;;5036036;28;20486;-54
2023/04/07 09:41:59;;;;;;;5.80;5.30;;;6.70;99.90;;;;;;5035957;28;20481;-54
2023/04/07 09:44:26;;;;;;;7.03;5.80;;;6.80;99.90;;;;;;5036065;28;20445;-53
2023/04/07 09:46:56;;;;;;;7.00;6.20;;;7.00;99.90;;;;;;5037081;28;20905;-53
2023/04/07 09:49:23;;;;;;;6.47;5.87;;;6.90;99.90;;;;;;5037106;28;20513;-53
2023/04/07 09:51:55;;;;;;;8.43;7.20;;;6.90;99.90;;;;;;5037335;28;20533;-54
2023/04/07 09:54:34;;;;;;;6.90;6.20;;;7.10;99.90;;;;;;5037188;28;20474;-54
2023/04/07 09:57:02;;;;;;;9.03;6.40;;;7.20;99.90;;;;;;5037035;28;20462;-53
2023/04/07 09:59:30;;;;;;;6.50;5.83;;;7.50;99.90;;;;;;5037205;28;20446;-53
2023/04/07 10:01:58;;;;;;;6.47;5.80;;;7.60;99.90;;;;;;5036657;28;20439;-54
2023/04/07 10:04:26;;;;;;;7.57;6.87;;;7.60;99.90;;;;;;5036601;28;20500;-54
2023/04/07 10:06:54;;;;;;;6.30;5.70;;;7.80;99.90;;;;;;5037105;28;20494;-54
2023/04/07 10:09:22;;;;;;;6.50;5.47;;;7.80;99.90;;;;;;5037302;28;20442;-54
2023/04/07 10:11:51;;;;;;;10.50;6.30;;;7.90;99.90;;;;;;5037058;28;20533;-54
2023/04/07 10:14:19;;;;;;;7.63;6.27;;;8.00;99.90;;;;;;5037074;28;20510;-54
2023/04/07 10:16:47;;;;;;;8.90;5.93;;;7.90;99.90;;;;;;5036857;28;20525;-54
2023/04/07 10:19:16;;;;;;;6.93;5.40;;;8.00;99.90;;;;;;5037234;28;20446;-53
2023/04/07 10:21:44;;;;;;;6.50;5.63;;;8.20;99.90;;;;;;5037098;28;20453;-54
2023/04/07 10:24:21;;;;;;;6.27;5.67;;;8.20;99.90;;;;;;5037043;28;20484;-53
2023/04/07 10:26:53;;;;;;;10.00;5.83;;;8.20;99.90;;;;;;5036668;28;20469;-54
2023/04/07 10:29:21;;;;;;;6.10;5.50;;;8.30;99.90;;;;;;5036812;28;20457;-54
2023/04/07 10:31:48;;;;;;;6.77;5.37;;;8.50;99.90;;;;;;5024570;28;20443;-54
2023/04/07 10:34:17;;;;;;;6.50;5.90;;;8.40;99.90;;;;;;5006140;28;20486;-54
2023/04/07 10:37:12;;;;;;;6.63;5.97;;;8.40;99.90;;;;;;5005888;28;20458;-54
2023/04/07 10:39:40;;;;;;;5.83;5.30;;;8.40;99.90;;;;;;4993484;28;20446;-54
2023/04/07 10:42:06;;;;;;;6.90;5.43;;;8.40;99.90;;;;;;5004148;28;20551;-54
2023/04/07 10:44:50;;;;;;;7.03;5.33;;;8.30;99.90;;;;;;5002180;28;20520;-54
2023/04/07 10:47:17;;;;;;;8.30;6.63;;;8.30;99.90;;;;;;4992844;28;20464;-55
2023/04/07 10:50:19;;;;;;;6.17;5.57;;;8.30;99.90;;;;;;4993125;28;20468;-53
2023/04/07 10:52:47;;;;;;;6.40;5.27;;;8.30;99.90;;;;;;4979181;28;21026;-54
2023/04/07 10:55:36;;;;;;;7.27;5.70;;;8.40;99.90;;;;;;5004289;28;21040;-54
2023/04/07 10:58:20;;;;;;;10.60;7.20;;;8.40;99.90;;;;;;5013510;28;20529;-54
2023/04/07 11:01:21;;;;;;;6.63;5.90;;;8.40;99.90;;;;;;5013258;28;20451;-54
2023/04/07 11:03:59;;;;;;;7.80;5.03;;;8.40;99.90;;;;;;5013701;28;20518;-54
2023/04/07 11:06:28;;;;;;;5.30;4.80;;;8.50;99.90;;;;;;5012448;28;20463;-54
2023/04/07 11:08:55;;;;;;;6.53;5.77;;;8.50;99.90;;;;;;5013227;28;20479;-53
2023/04/07 11:11:39;;;;;;;5.97;5.00;;;8.50;99.90;;;;;;5013161;28;20534;-54
2023/04/07 11:14:06;;;;;;;5.10;4.60;;;8.50;99.90;;;;;;5012227;28;20510;-54
2023/04/07 11:16:44;;;;;;;6.43;5.07;;;8.30;99.90;;;;;;5011714;28;20582;-54
2023/04/07 11:19:12;;;;;;;5.73;5.13;;;8.40;99.90;;;;;;5012146;28;20538;-54
2023/04/07 11:21:41;;;;;;;6.63;5.70;;;8.60;99.90;;;;;;5011984;28;20449;-54
2023/04/07 11:24:07;;;;;;;6.30;5.33;;;8.40;99.90;;;;;;5012858;28;20531;-53
2023/04/07 11:26:39;;;;;;;8.27;5.43;;;8.50;99.90;;;;;;5012803;28;20495;-54
2023/04/07 11:29:06;;;;;;;6.57;5.83;;;8.50;99.90;;;;;;5012930;28;20535;-54
2023/04/07 11:31:34;;;;;;;8.47;5.40;;;8.50;99.90;;;;;;5012735;28;20447;-54
2023/04/07 11:34:03;;;;;;;4.93;4.23;;;8.70;99.90;;;;;;5013089;28;20467;-54
2023/04/07 11:36:33;;;;;;;8.37;5.50;;;8.80;99.90;;;;;;5012263;28;20842;-54
2023/04/07 11:39:02;;;;;;;5.33;4.83;;;8.90;99.90;;;;;;5012677;28;20479;-54
2023/04/07 11:41:31;;;;;;;5.43;4.93;;;8.70;99.90;;;;;;5012868;28;20934;-54
2023/04/07 11:44:05;;;;;;;6.37;5.40;;;8.80;99.90;;;;;;5012712;28;20448;-54
2023/04/07 11:46:32;;;;;;;6.17;4.93;;;8.90;99.90;;;;;;5012691;28;20563;-54
2023/04/07 11:49:10;;;;;;;6.57;5.60;;;9.00;99.90;;;;;;5013049;28;20531;-54
2023/04/07 11:51:37;;;;;;;5.07;4.30;;;9.10;99.90;;;;;;5012643;28;20931;-53
2023/04/07 11:54:05;;;;;;;5.97;5.37;;;9.10;99.90;;;;;;5012207;28;20493;-54
2023/04/07 11:56:44;;;;;;;6.70;4.87;;;9.20;99.90;;;;;;5012459;28;20514;-54
2023/04/07 11:59:21;;;;;;;7.40;5.27;;;9.20;99.90;;;;;;5012846;28;20466;-54
2023/04/07 12:01:49;;;;;;;6.50;5.27;;;9.10;99.90;;;;;;5012600;28;20449;-54
2023/04/07 12:04:17;;;;;;;6.00;4.77;;;9.20;99.90;;;;;;5012444;28;20821;-54
2023/04/07 12:06:45;;;;;;;5.80;4.87;;;9.30;99.90;;;;;;5012119;28;20503;-54
2023/04/07 12:09:28;;;;;;;7.80;5.40;;;9.00;99.90;;;;;;5012706;28;20519;-54
2023/04/07 12:11:56;;;;;;;8.90;6.20;;;9.10;99.90;;;;;;5012403;28;20530;-54
2023/04/07 12:14:24;;;;;;;7.63;4.90;;;9.40;99.90;;;;;;5012686;28;20456;-54
2023/04/07 12:16:51;;;;;;;5.23;4.77;;;9.50;99.90;;;;;;5011784;28;20475;-55
2023/04/07 12:19:18;;;;;;;5.83;3.90;;;9.60;99.90;;;;;;5012487;28;20471;-54
2023/04/07 12:21:45;;;;;;;5.23;4.43;;;9.50;99.90;;;;;;5012211;28;20534;-54
2023/04/07 12:24:12;;;;;;;6.90;4.30;;;9.50;99.90;;;;;;5012127;28;20454;-54
2023/04/07 12:26:40;;;;;;;5.20;4.20;;;9.40;99.90;;;;;;5011955;28;20555;-55
2023/04/07 12:29:07;;;;;;;5.07;4.23;;;9.50;99.90;;;;;;5011674;28;20525;-55
2023/04/07 12:31:35;;;;;;;5.17;4.67;;;9.50;99.90;;;;;;5011494;28;20448;-54
2023/04/07 12:34:02;;;;;;;4.63;3.73;;;9.60;99.90;;;;;;5012100;28;20440;-55
2023/04/07 12:36:29;;;;;;;5.00;4.07;;;9.60;99.90;;;;;;5011768;28;20537;-54
2023/04/07 12:38:56;;;;;;;6.23;4.27;;;9.60;99.90;;;;;;5011533;28;20537;-54
2023/04/07 12:41:24;;;;;;;8.50;5.27;;;9.70;99.90;;;;;;5011772;28;20484;-54
2023/04/07 12:43:52;;;;;;;7.47;4.27;;;9.60;99.90;;;;;;5011754;28;20529;-54
2023/04/07 12:46:20;;;;;;;6.20;4.37;;;9.70;99.90;;;;;;5011654;28;20858;-54
2023/04/07 12:48:48;;;;;;;4.53;4.00;;;9.70;99.90;;;;;;5011830;28;20828;-54
2023/04/07 12:51:15;;;;;;;4.13;3.73;;;9.90;99.90;;;;;;5011755;28;20448;-54
2023/04/07 12:53:42;;;;;;;5.83;3.50;;;9.70;99.90;;;;;;5011232;28;20531;-54
2023/04/07 12:56:08;;;;;;;6.67;2.50;;;9.20;99.90;;;;;;5011109;28;20514;-55
2023/04/07 12:58:35;;;;;;;2.70;2.50;;;9.30;99.50;;;;;;5011665;28;20490;-54
2023/04/07 13:01:04;;;;;;;6.87;2.70;;;9.50;99.90;;;;;;5011191;28;20482;-54